sensor_id;sensor_type;location;lat;lon;timestamp;P1;durP1;ratioP1;P2;durP2;ratioP2
17890;SDS011;9071;48.220;14.480;2023-07-31T00:04:06;5.05;;;2.70;;
17890;SDS011;9071;48.220;14.480;2023-07-31T00:09:09;4.20;;;2.70;;
17890;SDS011;9071;48.220;14.480;2023-07-31T00:14:11;4.88;;;3.08;;
17890;SDS011;9071;48.220;14.480;2023-07-31T00:19:13;4.85;;;2.85;;
17890;SDS011;9071;48.220;14.480;2023-07-31T00:24:17;5.40;;;3.10;;
17890;SDS011;9071;48.220;14.480;2023-07-31T00:29:19;4.32;;;2.90;;
17890;SDS011;9071;48.220;14.480;2023-07-31T00:34:21;5.88;;;2.30;;
17890;SDS011;9071;48.220;14.480;2023-07-31T00:39:24;5.00;;;2.97;;
17890;SDS011;9071;48.220;14.480;2023-07-31T00:44:26;5.85;;;2.60;;
17890;SDS011;9071;48.220;14.480;2023-07-31T00:49:28;10.02;;;2.65;;
17890;SDS011;9071;48.220;14.480;2023-07-31T00:54:32;3.15;;;2.30;;
17890;SDS011;9071;48.220;14.480;2023-07-31T00:59:34;6.45;;;2.22;;
17890;SDS011;9071;48.220;14.480;2023-07-31T01:04:36;3.85;;;2.38;;
17890;SDS011;9071;48.220;14.480;2023-07-31T01:09:42;4.95;;;2.70;;
17890;SDS011;9071;48.220;14.480;2023-07-31T01:14:51;5.35;;;2.53;;
17890;SDS011;9071;48.220;14.480;2023-07-31T01:20:03;7.07;;;2.80;;
17890;SDS011;9071;48.220;14.480;2023-07-31T01:25:17;3.17;;;2.88;;
17890;SDS011;9071;48.220;14.480;2023-07-31T01:30:32;5.65;;;2.97;;
17890;SDS011;9071;48.220;14.480;2023-07-31T01:35:37;5.15;;;2.40;;
17890;SDS011;9071;48.220;14.480;2023-07-31T01:40:41;4.97;;;2.88;;
17890;SDS011;9071;48.220;14.480;2023-07-31T01:45:44;4.45;;;3.00;;
17890;SDS011;9071;48.220;14.480;2023-07-31T01:50:47;4.95;;;2.58;;
17890;SDS011;9071;48.220;14.480;2023-07-31T01:55:48;6.03;;;3.30;;
17890;SDS011;9071;48.220;14.480;2023-07-31T02:00:52;5.60;;;3.00;;
17890;SDS011;9071;48.220;14.480;2023-07-31T02:05:54;8.07;;;3.70;;
17890;SDS011;9071;48.220;14.480;2023-07-31T02:10:56;5.78;;;3.33;;
17890;SDS011;9071;48.220;14.480;2023-07-31T02:16:00;5.35;;;3.25;;
17890;SDS011;9071;48.220;14.480;2023-07-31T02:21:02;6.03;;;3.60;;
17890;SDS011;9071;48.220;14.480;2023-07-31T02:26:04;9.27;;;3.50;;
17890;SDS011;9071;48.220;14.480;2023-07-31T02:31:08;5.20;;;3.83;;
17890;SDS011;9071;48.220;14.480;2023-07-31T02:36:10;4.10;;;3.70;;
17890;SDS011;9071;48.220;14.480;2023-07-31T02:41:12;5.78;;;3.67;;
17890;SDS011;9071;48.220;14.480;2023-07-31T02:46:15;4.68;;;3.75;;
17890;SDS011;9071;48.220;14.480;2023-07-31T02:51:17;6.75;;;4.10;;
17890;SDS011;9071;48.220;14.480;2023-07-31T02:56:21;9.85;;;3.67;;
17890;SDS011;9071;48.220;14.480;2023-07-31T03:01:25;5.05;;;4.38;;
17890;SDS011;9071;48.220;14.480;2023-07-31T03:06:27;5.57;;;3.90;;
17890;SDS011;9071;48.220;14.480;2023-07-31T03:11:29;9.30;;;5.10;;
17890;SDS011;9071;48.220;14.480;2023-07-31T03:16:32;6.40;;;5.27;;
17890;SDS011;9071;48.220;14.480;2023-07-31T03:21:34;5.47;;;3.93;;
17890;SDS011;9071;48.220;14.480;2023-07-31T03:26:36;7.97;;;4.83;;
17890;SDS011;9071;48.220;14.480;2023-07-31T03:31:42;10.37;;;4.97;;
17890;SDS011;9071;48.220;14.480;2023-07-31T03:36:44;9.50;;;5.27;;
17890;SDS011;9071;48.220;14.480;2023-07-31T03:41:46;9.20;;;5.20;;
17890;SDS011;9071;48.220;14.480;2023-07-31T03:46:50;7.33;;;4.97;;
17890;SDS011;9071;48.220;14.480;2023-07-31T03:51:52;12.00;;;5.00;;
17890;SDS011;9071;48.220;14.480;2023-07-31T03:56:55;8.70;;;5.57;;
17890;SDS011;9071;48.220;14.480;2023-07-31T04:01:58;15.03;;;5.80;;
17890;SDS011;9071;48.220;14.480;2023-07-31T04:07:00;9.75;;;5.50;;
17890;SDS011;9071;48.220;14.480;2023-07-31T04:12:03;11.02;;;4.97;;
17890;SDS011;9071;48.220;14.480;2023-07-31T04:17:07;9.30;;;4.68;;
17890;SDS011;9071;48.220;14.480;2023-07-31T04:22:09;5.83;;;4.43;;
17890;SDS011;9071;48.220;14.480;2023-07-31T04:27:11;11.98;;;6.75;;
17890;SDS011;9071;48.220;14.480;2023-07-31T04:32:14;8.00;;;4.70;;
17890;SDS011;9071;48.220;14.480;2023-07-31T04:37:16;8.90;;;5.30;;
17890;SDS011;9071;48.220;14.480;2023-07-31T04:42:18;5.63;;;4.10;;
17890;SDS011;9071;48.220;14.480;2023-07-31T04:47:22;7.68;;;4.38;;
17890;SDS011;9071;48.220;14.480;2023-07-31T04:52:24;6.65;;;4.22;;
17890;SDS011;9071;48.220;14.480;2023-07-31T04:57:26;7.22;;;4.35;;
17890;SDS011;9071;48.220;14.480;2023-07-31T05:02:29;7.82;;;3.70;;
17890;SDS011;9071;48.220;14.480;2023-07-31T05:07:31;9.80;;;4.18;;
17890;SDS011;9071;48.220;14.480;2023-07-31T05:12:33;11.15;;;4.80;;
17890;SDS011;9071;48.220;14.480;2023-07-31T05:17:37;10.40;;;4.18;;
17890;SDS011;9071;48.220;14.480;2023-07-31T05:22:39;8.82;;;3.80;;
17890;SDS011;9071;48.220;14.480;2023-07-31T05:27:41;7.20;;;3.60;;
17890;SDS011;9071;48.220;14.480;2023-07-31T05:32:44;4.93;;;3.38;;
17890;SDS011;9071;48.220;14.480;2023-07-31T05:37:46;7.00;;;3.33;;
17890;SDS011;9071;48.220;14.480;2023-07-31T05:42:48;4.18;;;3.10;;
17890;SDS011;9071;48.220;14.480;2023-07-31T05:47:52;5.88;;;2.97;;
17890;SDS011;9071;48.220;14.480;2023-07-31T05:52:54;6.22;;;2.63;;
17890;SDS011;9071;48.220;14.480;2023-07-31T05:57:56;7.55;;;3.83;;
17890;SDS011;9071;48.220;14.480;2023-07-31T06:02:59;6.90;;;3.03;;
17890;SDS011;9071;48.220;14.480;2023-07-31T06:08:01;10.98;;;3.20;;
17890;SDS011;9071;48.220;14.480;2023-07-31T06:13:03;7.15;;;2.03;;
17890;SDS011;9071;48.220;14.480;2023-07-31T06:18:07;6.82;;;2.30;;
17890;SDS011;9071;48.220;14.480;2023-07-31T06:23:10;4.10;;;1.98;;
17890;SDS011;9071;48.220;14.480;2023-07-31T06:28:12;4.75;;;1.83;;
17890;SDS011;9071;48.220;14.480;2023-07-31T06:33:16;4.30;;;1.80;;
17890;SDS011;9071;48.220;14.480;2023-07-31T06:38:18;6.32;;;1.70;;
17890;SDS011;9071;48.220;14.480;2023-07-31T06:43:23;5.15;;;2.00;;
17890;SDS011;9071;48.220;14.480;2023-07-31T06:48:26;5.82;;;1.85;;
17890;SDS011;9071;48.220;14.480;2023-07-31T06:53:29;6.78;;;1.75;;
17890;SDS011;9071;48.220;14.480;2023-07-31T06:58:31;5.22;;;1.75;;
17890;SDS011;9071;48.220;14.480;2023-07-31T07:03:34;4.95;;;1.60;;
17890;SDS011;9071;48.220;14.480;2023-07-31T07:08:37;3.05;;;1.80;;
17890;SDS011;9071;48.220;14.480;2023-07-31T07:13:39;6.47;;;1.80;;
17890;SDS011;9071;48.220;14.480;2023-07-31T07:18:42;9.55;;;2.25;;
17890;SDS011;9071;48.220;14.480;2023-07-31T07:23:44;7.93;;;1.90;;
17890;SDS011;9071;48.220;14.480;2023-07-31T07:28:46;3.80;;;1.70;;
17890;SDS011;9071;48.220;14.480;2023-07-31T07:54:22;6.28;;;1.92;;
17890;SDS011;9071;48.220;14.480;2023-07-31T07:59:24;5.25;;;1.88;;
17890;SDS011;9071;48.220;14.480;2023-07-31T08:04:26;3.42;;;1.67;;
17890;SDS011;9071;48.220;14.480;2023-07-31T08:09:30;4.32;;;1.80;;
17890;SDS011;9071;48.220;14.480;2023-07-31T08:14:32;4.75;;;2.08;;
17890;SDS011;9071;48.220;14.480;2023-07-31T08:19:34;3.05;;;1.63;;
17890;SDS011;9071;48.220;14.480;2023-07-31T08:24:37;4.05;;;1.55;;
17890;SDS011;9071;48.220;14.480;2023-07-31T08:29:39;5.60;;;1.48;;
17890;SDS011;9071;48.220;14.480;2023-07-31T08:34:41;3.25;;;1.48;;
17890;SDS011;9071;48.220;14.480;2023-07-31T08:39:45;4.80;;;1.80;;
17890;SDS011;9071;48.220;14.480;2023-07-31T08:44:47;4.47;;;1.58;;
17890;SDS011;9071;48.220;14.480;2023-07-31T08:49:49;5.72;;;1.60;;
17890;SDS011;9071;48.220;14.480;2023-07-31T08:54:55;6.47;;;1.90;;
17890;SDS011;9071;48.220;14.480;2023-07-31T08:59:57;6.10;;;1.75;;
17890;SDS011;9071;48.220;14.480;2023-07-31T09:04:59;3.78;;;1.50;;
17890;SDS011;9071;48.220;14.480;2023-07-31T09:10:04;5.68;;;1.45;;
17890;SDS011;9071;48.220;14.480;2023-07-31T09:15:07;4.72;;;1.80;;
17890;SDS011;9071;48.220;14.480;2023-07-31T09:20:13;6.30;;;1.88;;
17890;SDS011;9071;48.220;14.480;2023-07-31T09:25:18;4.65;;;1.92;;
17890;SDS011;9071;48.220;14.480;2023-07-31T09:30:22;4.47;;;1.65;;
17890;SDS011;9071;48.220;14.480;2023-07-31T09:35:27;4.65;;;2.03;;
17890;SDS011;9071;48.220;14.480;2023-07-31T09:40:32;2.42;;;1.20;;
17890;SDS011;9071;48.220;14.480;2023-07-31T09:45:35;2.75;;;1.55;;
17890;SDS011;9071;48.220;14.480;2023-07-31T09:50:39;2.50;;;1.65;;
17890;SDS011;9071;48.220;14.480;2023-07-31T09:55:44;4.78;;;2.10;;
17890;SDS011;9071;48.220;14.480;2023-07-31T10:00:46;6.65;;;1.95;;
17890;SDS011;9071;48.220;14.480;2023-07-31T10:05:50;5.50;;;2.10;;
17890;SDS011;9071;48.220;14.480;2023-07-31T10:10:54;4.63;;;1.50;;
17890;SDS011;9071;48.220;14.480;2023-07-31T10:16:00;5.72;;;1.85;;
17890;SDS011;9071;48.220;14.480;2023-07-31T10:21:03;3.70;;;1.60;;
17890;SDS011;9071;48.220;14.480;2023-07-31T10:26:07;4.03;;;1.75;;
17890;SDS011;9071;48.220;14.480;2023-07-31T10:31:11;2.78;;;1.58;;
17890;SDS011;9071;48.220;14.480;2023-07-31T10:36:13;6.50;;;2.00;;
17890;SDS011;9071;48.220;14.480;2023-07-31T10:41:19;6.95;;;1.98;;
17890;SDS011;9071;48.220;14.480;2023-07-31T10:46:28;2.03;;;1.30;;
17890;SDS011;9071;48.220;14.480;2023-07-31T10:51:34;2.35;;;1.38;;
17890;SDS011;9071;48.220;14.480;2023-07-31T10:56:38;4.47;;;1.60;;
17890;SDS011;9071;48.220;14.480;2023-07-31T11:01:49;3.30;;;2.00;;
17890;SDS011;9071;48.220;14.480;2023-07-31T11:06:55;2.97;;;1.52;;
17890;SDS011;9071;48.220;14.480;2023-07-31T11:11:59;3.65;;;1.92;;
17890;SDS011;9071;48.220;14.480;2023-07-31T11:17:05;3.58;;;1.80;;
17890;SDS011;9071;48.220;14.480;2023-07-31T11:22:08;3.60;;;1.67;;
17890;SDS011;9071;48.220;14.480;2023-07-31T11:27:11;3.67;;;1.50;;
17890;SDS011;9071;48.220;14.480;2023-07-31T11:32:15;1.75;;;1.30;;
17890;SDS011;9071;48.220;14.480;2023-07-31T11:37:18;3.03;;;1.40;;
17890;SDS011;9071;48.220;14.480;2023-07-31T11:42:21;2.88;;;1.45;;
17890;SDS011;9071;48.220;14.480;2023-07-31T11:47:25;3.42;;;1.60;;
17890;SDS011;9071;48.220;14.480;2023-07-31T11:52:27;6.22;;;1.80;;
17890;SDS011;9071;48.220;14.480;2023-07-31T11:57:32;5.50;;;1.48;;
17890;SDS011;9071;48.220;14.480;2023-07-31T12:02:34;4.72;;;1.67;;
17890;SDS011;9071;48.220;14.480;2023-07-31T12:07:44;3.42;;;1.55;;
17890;SDS011;9071;48.220;14.480;2023-07-31T12:12:56;2.15;;;1.55;;
17890;SDS011;9071;48.220;14.480;2023-07-31T12:18:00;15.18;;;2.38;;
17890;SDS011;9071;48.220;14.480;2023-07-31T12:23:06;4.80;;;1.65;;
17890;SDS011;9071;48.220;14.480;2023-07-31T12:28:10;4.15;;;1.80;;
17890;SDS011;9071;48.220;14.480;2023-07-31T12:33:15;3.35;;;1.50;;
17890;SDS011;9071;48.220;14.480;2023-07-31T12:38:17;2.97;;;1.60;;
17890;SDS011;9071;48.220;14.480;2023-07-31T12:43:20;2.58;;;1.58;;
17890;SDS011;9071;48.220;14.480;2023-07-31T12:48:22;3.22;;;1.73;;
17890;SDS011;9071;48.220;14.480;2023-07-31T12:53:25;3.97;;;1.80;;
17890;SDS011;9071;48.220;14.480;2023-07-31T12:58:28;4.38;;;1.80;;
17890;SDS011;9071;48.220;14.480;2023-07-31T13:03:30;4.63;;;1.90;;
17890;SDS011;9071;48.220;14.480;2023-07-31T13:08:32;3.42;;;1.90;;
17890;SDS011;9071;48.220;14.480;2023-07-31T13:13:36;8.52;;;2.45;;
17890;SDS011;9071;48.220;14.480;2023-07-31T13:18:38;4.50;;;2.17;;
17890;SDS011;9071;48.220;14.480;2023-07-31T13:23:40;4.38;;;1.70;;
17890;SDS011;9071;48.220;14.480;2023-07-31T13:28:43;3.70;;;1.80;;
17890;SDS011;9071;48.220;14.480;2023-07-31T13:33:45;3.00;;;1.80;;
17890;SDS011;9071;48.220;14.480;2023-07-31T13:38:47;4.25;;;2.00;;
17890;SDS011;9071;48.220;14.480;2023-07-31T13:43:51;4.07;;;1.73;;
17890;SDS011;9071;48.220;14.480;2023-07-31T13:48:53;4.50;;;2.00;;
17890;SDS011;9071;48.220;14.480;2023-07-31T13:53:55;3.10;;;1.58;;
17890;SDS011;9071;48.220;14.480;2023-07-31T13:58:59;3.65;;;1.80;;
17890;SDS011;9071;48.220;14.480;2023-07-31T14:04:01;2.88;;;2.00;;
17890;SDS011;9071;48.220;14.480;2023-07-31T14:09:04;4.15;;;1.80;;
17890;SDS011;9071;48.220;14.480;2023-07-31T14:14:08;4.07;;;1.92;;
17890;SDS011;9071;48.220;14.480;2023-07-31T14:19:10;5.53;;;1.70;;
17890;SDS011;9071;48.220;14.480;2023-07-31T14:24:13;3.22;;;1.75;;
17890;SDS011;9071;48.220;14.480;2023-07-31T14:29:16;2.38;;;1.65;;
17890;SDS011;9071;48.220;14.480;2023-07-31T14:34:18;3.50;;;2.00;;
17890;SDS011;9071;48.220;14.480;2023-07-31T14:39:20;3.67;;;2.00;;
17890;SDS011;9071;48.220;14.480;2023-07-31T14:44:24;3.47;;;1.85;;
17890;SDS011;9071;48.220;14.480;2023-07-31T14:49:26;4.78;;;1.92;;
17890;SDS011;9071;48.220;14.480;2023-07-31T14:54:28;3.80;;;1.60;;
17890;SDS011;9071;48.220;14.480;2023-07-31T14:59:31;3.25;;;2.03;;
17890;SDS011;9071;48.220;14.480;2023-07-31T15:04:34;3.58;;;1.85;;
17890;SDS011;9071;48.220;14.480;2023-07-31T15:09:36;2.58;;;1.70;;
17890;SDS011;9071;48.220;14.480;2023-07-31T15:14:39;3.65;;;2.10;;
17890;SDS011;9071;48.220;14.480;2023-07-31T15:19:41;3.05;;;2.00;;
17890;SDS011;9071;48.220;14.480;2023-07-31T15:24:43;11.07;;;2.15;;
17890;SDS011;9071;48.220;14.480;2023-07-31T15:29:49;2.90;;;2.10;;
17890;SDS011;9071;48.220;14.480;2023-07-31T15:34:51;3.92;;;1.80;;
17890;SDS011;9071;48.220;14.480;2023-07-31T15:39:53;4.65;;;2.00;;
17890;SDS011;9071;48.220;14.480;2023-07-31T15:44:57;2.50;;;1.85;;
17890;SDS011;9071;48.220;14.480;2023-07-31T15:49:59;5.60;;;2.17;;
17890;SDS011;9071;48.220;14.480;2023-07-31T15:55:01;3.25;;;1.90;;
17890;SDS011;9071;48.220;14.480;2023-07-31T16:00:05;4.30;;;1.95;;
17890;SDS011;9071;48.220;14.480;2023-07-31T16:05:09;2.33;;;1.95;;
17890;SDS011;9071;48.220;14.480;2023-07-31T16:10:11;4.10;;;2.10;;
17890;SDS011;9071;48.220;14.480;2023-07-31T16:15:15;3.65;;;1.95;;
17890;SDS011;9071;48.220;14.480;2023-07-31T16:20:17;2.75;;;1.95;;
17890;SDS011;9071;48.220;14.480;2023-07-31T16:25:19;3.45;;;2.20;;
17890;SDS011;9071;48.220;14.480;2023-07-31T16:30:23;4.28;;;2.10;;
17890;SDS011;9071;48.220;14.480;2023-07-31T16:35:25;3.42;;;2.00;;
17890;SDS011;9071;48.220;14.480;2023-07-31T16:40:27;3.20;;;1.95;;
17890;SDS011;9071;48.220;14.480;2023-07-31T16:45:30;2.97;;;2.30;;
17890;SDS011;9071;48.220;14.480;2023-07-31T16:50:32;4.68;;;2.00;;
17890;SDS011;9071;48.220;14.480;2023-07-31T16:55:34;5.88;;;2.20;;
17890;SDS011;9071;48.220;14.480;2023-07-31T17:00:38;2.47;;;1.80;;
17890;SDS011;9071;48.220;14.480;2023-07-31T17:05:40;4.07;;;2.00;;
17890;SDS011;9071;48.220;14.480;2023-07-31T17:10:42;2.38;;;1.95;;
17890;SDS011;9071;48.220;14.480;2023-07-31T17:15:45;4.32;;;2.20;;
17890;SDS011;9071;48.220;14.480;2023-07-31T17:20:47;4.70;;;2.30;;
17890;SDS011;9071;48.220;14.480;2023-07-31T17:25:50;4.40;;;2.10;;
17890;SDS011;9071;48.220;14.480;2023-07-31T17:30:53;7.57;;;3.60;;
17890;SDS011;9071;48.220;14.480;2023-07-31T17:35:55;3.97;;;2.08;;
17890;SDS011;9071;48.220;14.480;2023-07-31T17:40:57;4.85;;;2.10;;
17890;SDS011;9071;48.220;14.480;2023-07-31T17:46:01;5.60;;;2.88;;
17890;SDS011;9071;48.220;14.480;2023-07-31T17:51:04;5.28;;;2.42;;
17890;SDS011;9071;48.220;14.480;2023-07-31T17:56:07;3.35;;;1.90;;
17890;SDS011;9071;48.220;14.480;2023-07-31T18:01:11;3.50;;;1.95;;
17890;SDS011;9071;48.220;14.480;2023-07-31T18:06:13;3.42;;;2.00;;
17890;SDS011;9071;48.220;14.480;2023-07-31T18:11:15;3.45;;;2.47;;
17890;SDS011;9071;48.220;14.480;2023-07-31T18:16:18;4.78;;;2.30;;
17890;SDS011;9071;48.220;14.480;2023-07-31T18:21:20;4.65;;;2.78;;
17890;SDS011;9071;48.220;14.480;2023-07-31T18:26:22;3.28;;;2.40;;
17890;SDS011;9071;48.220;14.480;2023-07-31T18:31:26;3.42;;;2.08;;
17890;SDS011;9071;48.220;14.480;2023-07-31T18:36:28;3.65;;;2.47;;
17890;SDS011;9071;48.220;14.480;2023-07-31T18:41:30;4.50;;;2.17;;
17890;SDS011;9071;48.220;14.480;2023-07-31T18:46:33;8.55;;;3.13;;
17890;SDS011;9071;48.220;14.480;2023-07-31T18:51:35;5.50;;;2.83;;
17890;SDS011;9071;48.220;14.480;2023-07-31T18:56:40;4.30;;;2.60;;
17890;SDS011;9071;48.220;14.480;2023-07-31T19:01:44;6.60;;;2.55;;
17890;SDS011;9071;48.220;14.480;2023-07-31T19:06:46;3.60;;;2.55;;
17890;SDS011;9071;48.220;14.480;2023-07-31T19:11:48;4.25;;;3.00;;
17890;SDS011;9071;48.220;14.480;2023-07-31T19:16:51;4.18;;;2.80;;
17890;SDS011;9071;48.220;14.480;2023-07-31T19:21:54;5.65;;;2.40;;
17890;SDS011;9071;48.220;14.480;2023-07-31T19:26:56;5.53;;;2.50;;
17890;SDS011;9071;48.220;14.480;2023-07-31T19:32:00;5.25;;;2.70;;
17890;SDS011;9071;48.220;14.480;2023-07-31T19:37:02;3.45;;;2.50;;
17890;SDS011;9071;48.220;14.480;2023-07-31T19:42:04;4.15;;;2.53;;
17890;SDS011;9071;48.220;14.480;2023-07-31T19:47:07;4.03;;;2.72;;
17890;SDS011;9071;48.220;14.480;2023-07-31T19:52:09;5.25;;;2.80;;
17890;SDS011;9071;48.220;14.480;2023-07-31T19:57:12;4.65;;;2.80;;
17890;SDS011;9071;48.220;14.480;2023-07-31T20:02:15;7.40;;;2.80;;
17890;SDS011;9071;48.220;14.480;2023-07-31T20:07:17;7.43;;;2.78;;
17890;SDS011;9071;48.220;14.480;2023-07-31T20:12:19;3.63;;;2.60;;
17890;SDS011;9071;48.220;14.480;2023-07-31T20:17:23;6.20;;;3.33;;
17890;SDS011;9071;48.220;14.480;2023-07-31T20:22:27;4.38;;;2.80;;
17890;SDS011;9071;48.220;14.480;2023-07-31T20:27:30;5.60;;;3.05;;
17890;SDS011;9071;48.220;14.480;2023-07-31T20:32:33;4.88;;;3.45;;
17890;SDS011;9071;48.220;14.480;2023-07-31T20:37:35;5.75;;;3.33;;
17890;SDS011;9071;48.220;14.480;2023-07-31T20:42:37;5.72;;;3.90;;
17890;SDS011;9071;48.220;14.480;2023-07-31T20:47:41;5.15;;;3.50;;
17890;SDS011;9071;48.220;14.480;2023-07-31T20:52:44;6.43;;;3.70;;
17890;SDS011;9071;48.220;14.480;2023-07-31T20:57:46;9.45;;;4.47;;
17890;SDS011;9071;48.220;14.480;2023-07-31T21:02:51;9.18;;;5.25;;
17890;SDS011;9071;48.220;14.480;2023-07-31T21:07:53;7.88;;;4.05;;
17890;SDS011;9071;48.220;14.480;2023-07-31T21:12:55;8.15;;;3.90;;
17890;SDS011;9071;48.220;14.480;2023-07-31T21:17:59;8.43;;;3.92;;
17890;SDS011;9071;48.220;14.480;2023-07-31T21:23:01;11.32;;;4.45;;
17890;SDS011;9071;48.220;14.480;2023-07-31T21:28:06;10.00;;;4.07;;
17890;SDS011;9071;48.220;14.480;2023-07-31T21:33:12;10.38;;;4.57;;
17890;SDS011;9071;48.220;14.480;2023-07-31T21:38:14;11.55;;;4.00;;
17890;SDS011;9071;48.220;14.480;2023-07-31T21:43:16;11.80;;;4.32;;
17890;SDS011;9071;48.220;14.480;2023-07-31T21:48:19;7.30;;;3.90;;
17890;SDS011;9071;48.220;14.480;2023-07-31T21:53:23;10.55;;;3.80;;
17890;SDS011;9071;48.220;14.480;2023-07-31T21:58:25;10.85;;;4.15;;
17890;SDS011;9071;48.220;14.480;2023-07-31T22:03:29;8.48;;;4.38;;
17890;SDS011;9071;48.220;14.480;2023-07-31T22:08:31;7.88;;;4.22;;
17890;SDS011;9071;48.220;14.480;2023-07-31T22:13:33;12.35;;;4.40;;
17890;SDS011;9071;48.220;14.480;2023-07-31T22:18:36;8.20;;;4.35;;
17890;SDS011;9071;48.220;14.480;2023-07-31T22:23:38;8.10;;;4.07;;
17890;SDS011;9071;48.220;14.480;2023-07-31T22:28:40;8.77;;;4.55;;
17890;SDS011;9071;48.220;14.480;2023-07-31T22:33:44;8.55;;;4.15;;
17890;SDS011;9071;48.220;14.480;2023-07-31T22:38:46;8.98;;;4.32;;
17890;SDS011;9071;48.220;14.480;2023-07-31T22:43:48;6.57;;;4.05;;
17890;SDS011;9071;48.220;14.480;2023-07-31T22:48:52;6.70;;;4.35;;
17890;SDS011;9071;48.220;14.480;2023-07-31T22:53:55;5.45;;;3.95;;
17890;SDS011;9071;48.220;14.480;2023-07-31T22:58:57;7.57;;;4.03;;
17890;SDS011;9071;48.220;14.480;2023-07-31T23:04:00;7.70;;;4.20;;
17890;SDS011;9071;48.220;14.480;2023-07-31T23:09:02;8.20;;;4.00;;
17890;SDS011;9071;48.220;14.480;2023-07-31T23:14:04;5.25;;;4.18;;
17890;SDS011;9071;48.220;14.480;2023-07-31T23:19:08;16.73;;;5.22;;
17890;SDS011;9071;48.220;14.480;2023-07-31T23:24:10;4.93;;;4.20;;
17890;SDS011;9071;48.220;14.480;2023-07-31T23:29:12;9.77;;;4.40;;
17890;SDS011;9071;48.220;14.480;2023-07-31T23:34:15;7.60;;;4.35;;
17890;SDS011;9071;48.220;14.480;2023-07-31T23:39:17;9.45;;;5.10;;
17890;SDS011;9071;48.220;14.480;2023-07-31T23:44:20;6.95;;;4.50;;
17890;SDS011;9071;48.220;14.480;2023-07-31T23:49:23;8.65;;;4.75;;
17890;SDS011;9071;48.220;14.480;2023-07-31T23:54:25;7.55;;;4.72;;
17890;SDS011;9071;48.220;14.480;2023-07-31T23:59:29;8.00;;;4.60;;
